createdAt,value
2023-04-17T00:00:27.540Z,38.6550
2023-04-17T00:01:29.818Z,38.6460
2023-04-17T00:02:32.214Z,38.6820
2023-04-17T00:03:34.549Z,38.6360
2023-04-17T00:04:36.805Z,38.6310
2023-04-17T00:05:36.837Z,38.6310
2023-04-17T00:06:39.109Z,38.5820
2023-04-17T00:07:41.534Z,38.5900
2023-04-17T00:08:43.701Z,38.6360
2023-04-17T00:09:45.936Z,38.6250
2023-04-17T00:11:00.267Z,38.6020
2023-04-17T00:11:50.504Z,38.6290
2023-04-17T00:12:50.635Z,38.6020
2023-04-17T00:13:52.815Z,38.6020
2023-04-17T00:14:55.018Z,38.5780
2023-04-17T00:15:57.306Z,38.6110
2023-04-17T00:16:59.558Z,38.6520
2023-04-17T00:18:02.006Z,38.6460
2023-04-17T00:19:04.109Z,38.6400
2023-04-17T00:20:06.380Z,38.6170
2023-04-17T00:21:08.653Z,38.6050
2023-04-17T00:22:08.785Z,38.5840
2023-04-17T00:23:11.102Z,38.5540
2023-04-17T00:24:13.329Z,38.5720
2023-04-17T00:25:15.620Z,38.5320
2023-04-17T00:26:17.860Z,38.5720
2023-04-17T00:27:20.079Z,38.6110
2023-04-17T00:28:22.359Z,38.6170
2023-04-17T00:29:24.607Z,38.5930
2023-04-17T00:30:24.733Z,38.5630
2023-04-17T00:31:26.960Z,38.6050
2023-04-17T00:32:29.223Z,38.6240
2023-04-17T00:33:31.510Z,38.5810
2023-04-17T00:34:33.702Z,38.5540
2023-04-17T00:35:35.917Z,38.5310
2023-04-17T00:36:38.124Z,38.5520
2023-04-17T00:37:40.435Z,38.5630
2023-04-17T00:38:42.906Z,38.5690
2023-04-17T00:39:45.065Z,38.5460
2023-04-17T00:40:45.276Z,38.5250
2023-04-17T00:41:47.607Z,38.5360
2023-04-17T00:42:49.888Z,38.5160
2023-04-17T00:43:52.245Z,38.5580
2023-04-17T00:44:52.422Z,38.5340
2023-04-17T00:45:54.798Z,38.5130
2023-04-17T00:46:57.085Z,38.5040
2023-04-17T00:49:16.894Z,38.5630
2023-04-17T00:50:19.082Z,38.5520
2023-04-17T00:51:21.302Z,38.5520
2023-04-17T00:52:21.449Z,38.5470
2023-04-17T00:53:23.766Z,38.5580
2023-04-17T00:54:26.100Z,38.5580
2023-04-17T00:55:28.407Z,38.5640
2023-04-17T00:56:30.709Z,38.5520
2023-04-17T00:57:31.002Z,38.5580
2023-04-17T00:58:33.180Z,38.5160
2023-04-17T00:59:35.494Z,38.5210
2023-04-17T01:00:37.786Z,38.5350
2023-04-17T01:01:40.245Z,38.5350
2023-04-17T01:02:42.471Z,38.5850
2023-04-17T01:03:44.840Z,38.5580
2023-04-17T01:04:44.794Z,38.5700
2023-04-17T01:05:47.054Z,38.5410
2023-04-17T01:06:49.317Z,38.5560
2023-04-17T01:07:51.570Z,38.5680
2023-04-17T01:08:53.773Z,38.5560
2023-04-17T01:09:56.064Z,38.5470
2023-04-17T01:10:58.299Z,38.5350
2023-04-17T01:12:00.574Z,38.5040
2023-04-17T01:13:00.703Z,38.4990
2023-04-17T01:14:02.974Z,38.4980
2023-04-17T01:15:05.295Z,38.4630
2023-04-17T01:16:07.557Z,38.4690
2023-04-17T01:17:09.868Z,38.4750
2023-04-17T01:18:12.154Z,38.5360
2023-04-17T01:19:14.350Z,38.5510
2023-04-17T01:20:16.712Z,38.5370
2023-04-17T01:21:16.962Z,38.5560
2023-04-17T01:22:19.157Z,38.5650
2023-04-17T01:23:21.482Z,38.5640
2023-04-17T01:24:23.806Z,38.5230
2023-04-17T01:25:26.136Z,38.5470
2023-04-17T01:26:26.285Z,38.5410
2023-04-17T01:27:28.604Z,38.5410
2023-04-17T01:28:30.951Z,38.5580
2023-04-17T01:29:33.230Z,38.5460
2023-04-17T01:30:35.614Z,38.5640
2023-04-17T01:31:37.776Z,38.5580
2023-04-17T01:32:40.127Z,38.5520
2023-04-17T01:33:40.219Z,38.5520
2023-04-17T01:34:42.526Z,38.5520
2023-04-17T01:35:44.833Z,38.5850
2023-04-17T01:36:47.054Z,38.5640
2023-04-17T01:37:49.310Z,38.5800
2023-04-17T01:38:51.579Z,38.5890
2023-04-17T01:39:53.836Z,38.5580
2023-04-17T01:40:56.060Z,38.5580
2023-04-17T01:41:58.284Z,38.5580
2023-04-17T01:42:58.387Z,38.5290
2023-04-17T01:44:00.739Z,38.5460
2023-04-17T01:45:03.108Z,38.5700
2023-04-17T01:46:05.444Z,38.5810
2023-04-17T01:47:07.681Z,38.5890
2023-04-17T01:48:10.004Z,38.5580
2023-04-17T01:49:10.329Z,38.5460
2023-04-17T01:50:12.503Z,38.5100
2023-04-17T01:51:14.823Z,38.5410
2023-04-17T01:52:17.119Z,38.5520
2023-04-17T01:53:19.404Z,38.5680
2023-04-17T01:54:21.651Z,38.6020
2023-04-17T01:55:21.748Z,38.5950
2023-04-17T01:56:24.034Z,38.5680
2023-04-17T01:57:26.216Z,38.5620
2023-04-17T01:58:28.521Z,38.5520
2023-04-17T01:59:30.743Z,38.5180
2023-04-17T02:00:32.955Z,38.5230
2023-04-17T02:01:35.418Z,38.5100
2023-04-17T02:02:37.620Z,38.4990
2023-04-17T02:03:39.826Z,38.4920
2023-04-17T02:04:41.931Z,38.4810
2023-04-17T02:05:41.967Z,38.5050
2023-04-17T02:06:44.304Z,38.5050
2023-04-17T02:07:46.559Z,38.5050
2023-04-17T02:08:48.863Z,38.5370
2023-04-17T02:09:51.186Z,38.5260
2023-04-17T02:10:53.475Z,38.5090
2023-04-17T02:11:55.835Z,38.5090
2023-04-17T02:12:55.944Z,38.5140
2023-04-17T02:13:58.250Z,38.4990
2023-04-17T02:15:00.566Z,38.5320
2023-04-17T02:16:02.886Z,38.5300
2023-04-17T02:17:05.215Z,38.5340
2023-04-17T02:18:07.517Z,38.5140
2023-04-17T02:19:07.645Z,38.4870
2023-04-17T02:20:09.931Z,38.4700
2023-04-17T02:21:12.235Z,38.4610
2023-04-17T02:22:14.576Z,38.5030
2023-04-17T02:23:16.825Z,38.5360
2023-04-17T02:24:19.130Z,38.5090
2023-04-17T02:25:21.436Z,38.4850
2023-04-17T02:26:21.582Z,38.4700
2023-04-17T02:27:23.886Z,38.4610
2023-04-17T02:28:26.164Z,38.4610
2023-04-17T02:29:28.459Z,38.4550
2023-04-17T02:30:32.457Z,38.4650
2023-04-17T02:31:31.935Z,38.6140
2023-04-17T02:32:34.331Z,38.7370
2023-04-17T02:33:36.413Z,38.8080
2023-04-17T02:34:38.674Z,38.8740
2023-04-17T02:35:38.761Z,38.8860
2023-04-17T02:36:40.954Z,38.8860
2023-04-17T02:37:43.259Z,38.9150
2023-04-17T02:38:45.488Z,38.9850
2023-04-17T02:39:45.630Z,38.9850
2023-04-17T02:40:47.907Z,38.9630
2023-04-17T02:41:50.222Z,38.9670
2023-04-17T02:42:52.561Z,39.0180
2023-04-17T02:43:52.702Z,39.0350
2023-04-17T02:44:54.996Z,39.0360
2023-04-17T02:45:57.340Z,39.0180
2023-04-17T02:46:59.592Z,39.0060
2023-04-17T02:48:01.931Z,39.0000
2023-04-17T02:49:04.021Z,38.9940
2023-04-17T02:50:06.280Z,39.0060
2023-04-17T02:51:08.508Z,38.9810
2023-04-17T02:52:10.758Z,38.9890
2023-04-17T02:53:13.006Z,38.9810
2023-04-17T02:54:15.255Z,38.9640
2023-04-17T02:55:17.502Z,39.0000
2023-04-17T02:56:19.762Z,38.9890
2023-04-17T02:57:21.980Z,38.9890
2023-04-17T02:58:24.199Z,38.9780
2023-04-17T02:59:26.451Z,39.0000
2023-04-17T03:00:28.732Z,38.9890
2023-04-17T03:01:31.063Z,38.9810
2023-04-17T03:02:33.365Z,38.9640
2023-04-17T03:03:33.605Z,38.9700
2023-04-17T03:04:35.685Z,38.9700
2023-04-17T03:05:37.937Z,38.9580
2023-04-17T03:06:40.197Z,38.9470
2023-04-17T03:07:40.321Z,38.9520
2023-04-17T03:08:42.595Z,38.9830
2023-04-17T03:09:44.850Z,38.9890
2023-04-17T03:10:47.150Z,38.9790
2023-04-17T03:11:47.314Z,39.0000
2023-04-17T03:12:49.618Z,39.0240
2023-04-17T03:13:51.986Z,39.0470
2023-04-17T03:14:54.199Z,39.0780
2023-04-17T03:15:56.502Z,39.0720
2023-04-17T03:16:58.947Z,39.0950
2023-04-17T03:18:01.185Z,39.1070
2023-04-17T03:19:01.306Z,39.1130
2023-04-17T03:20:03.560Z,39.1380
2023-04-17T03:21:05.884Z,39.1300
2023-04-17T03:22:08.194Z,39.1180
2023-04-17T03:23:10.494Z,39.1060
2023-04-17T03:24:12.845Z,39.1160
2023-04-17T03:25:15.062Z,39.1330
2023-04-17T03:26:17.353Z,39.1500
2023-04-17T03:27:19.584Z,39.1660
2023-04-17T03:28:21.938Z,39.2040
2023-04-17T03:29:22.054Z,39.1810
2023-04-17T03:30:24.296Z,39.1810
2023-04-17T03:31:26.592Z,39.2140
2023-04-17T03:32:28.946Z,39.2320
2023-04-17T03:33:29.002Z,39.2220
2023-04-17T03:34:31.398Z,39.2160
2023-04-17T03:35:33.574Z,39.2000
2023-04-17T03:36:35.821Z,39.2100
2023-04-17T03:37:35.970Z,39.2280
2023-04-17T03:38:38.277Z,39.2870
2023-04-17T03:39:40.684Z,39.2510
2023-04-17T03:40:42.788Z,39.2700
2023-04-17T03:41:42.891Z,39.2640
2023-04-17T03:42:45.157Z,39.2450
2023-04-17T03:43:47.453Z,39.2640
2023-04-17T03:44:49.721Z,39.2540
2023-04-17T03:45:49.857Z,39.2330
2023-04-17T03:46:52.090Z,39.2310
2023-04-17T03:47:54.443Z,39.2450
2023-04-17T03:48:56.683Z,39.2700
2023-04-17T03:49:56.847Z,39.2700
2023-04-17T03:50:59.119Z,39.3090
2023-04-17T03:52:01.416Z,39.3600
2023-04-17T03:53:03.719Z,39.3720
2023-04-17T03:54:06.053Z,39.3750
2023-04-17T03:55:08.431Z,39.3330
2023-04-17T03:56:10.747Z,39.3380
2023-04-17T03:57:13.114Z,39.3600
2023-04-17T03:58:15.480Z,39.3520
2023-04-17T03:59:15.699Z,39.3660
2023-04-17T04:00:18.085Z,39.3270
2023-04-17T04:01:20.422Z,39.3210
2023-04-17T04:02:20.705Z,39.3330
2023-04-17T04:03:23.171Z,39.3500
2023-04-17T04:04:25.578Z,39.3550
2023-04-17T04:05:25.610Z,39.3550
2023-04-17T04:06:27.898Z,39.3500
2023-04-17T04:07:30.298Z,39.3690
2023-04-17T04:08:30.487Z,39.3590
2023-04-17T04:09:32.857Z,39.3980
2023-04-17T04:10:35.199Z,39.4190
2023-04-17T04:11:37.463Z,39.4650
2023-04-17T04:12:39.777Z,39.5170
2023-04-17T04:13:42.027Z,39.5620
2023-04-17T04:14:44.300Z,39.5820
2023-04-17T04:15:44.440Z,39.5970
2023-04-17T04:16:46.684Z,39.6470
2023-04-17T04:17:49.099Z,39.7130
2023-04-17T04:18:51.308Z,39.7610
2023-04-17T04:19:51.422Z,39.7750
2023-04-17T04:20:53.764Z,39.7900
2023-04-17T04:21:56.018Z,39.8020
2023-04-17T04:22:58.273Z,39.8560
2023-04-17T04:23:58.358Z,39.8950
2023-04-17T04:25:00.662Z,39.9240
2023-04-17T04:26:03.116Z,39.9120
2023-04-17T04:27:05.398Z,39.9600
2023-04-17T04:28:07.582Z,39.9880
2023-04-17T04:29:10.100Z,39.9930
2023-04-17T04:30:12.210Z,40.0340
2023-04-17T04:31:14.519Z,40.0470
2023-04-17T04:32:16.766Z,40.0400
2023-04-17T04:33:19.060Z,40.0400
2023-04-17T04:34:19.230Z,40.0650
2023-04-17T04:35:21.472Z,40.1000
2023-04-17T04:36:23.763Z,40.0940
2023-04-17T04:37:25.996Z,40.0830
2023-04-17T04:38:26.111Z,40.0880
2023-04-17T04:39:28.429Z,40.1060
2023-04-17T04:40:30.698Z,40.1000
2023-04-17T04:41:32.984Z,40.1060
2023-04-17T04:42:33.113Z,40.1000
2023-04-17T04:43:35.421Z,40.1310
2023-04-17T04:44:37.771Z,40.1170
2023-04-17T04:45:40.063Z,40.1370
2023-04-17T04:46:42.455Z,40.1480
2023-04-17T04:47:44.716Z,40.1370
2023-04-17T04:48:46.999Z,40.1190
2023-04-17T04:49:49.352Z,40.1120
2023-04-17T04:50:51.644Z,40.1430
2023-04-17T04:51:54.017Z,40.1780
2023-04-17T04:52:56.288Z,40.1600
2023-04-17T04:53:58.612Z,40.1820
2023-04-17T04:55:00.890Z,40.1600
2023-04-17T04:56:01.023Z,40.1480
2023-04-17T04:57:03.316Z,40.0830
2023-04-17T04:58:05.558Z,40.1000
2023-04-17T04:59:07.790Z,40.1160
2023-04-17T05:00:07.903Z,40.1040
2023-04-17T05:01:10.457Z,40.0710
2023-04-17T05:02:12.534Z,40.0710
2023-04-17T05:03:14.863Z,40.0400
2023-04-17T05:04:16.881Z,40.0280
2023-04-17T05:05:19.172Z,40.0220
2023-04-17T05:06:21.386Z,40.0280
2023-04-17T05:07:23.662Z,40.0470
2023-04-17T05:08:25.871Z,40.0670
2023-04-17T05:09:28.121Z,40.0400
2023-04-17T05:10:30.414Z,40.0380
2023-04-17T05:11:32.677Z,40.0170
2023-04-17T05:12:32.817Z,39.9760
2023-04-17T05:13:35.049Z,39.9220
2023-04-17T05:14:37.317Z,39.9040
2023-04-17T05:15:39.573Z,39.9270
2023-04-17T05:16:39.736Z,39.8960
2023-04-17T05:17:42.086Z,39.8730
2023-04-17T05:18:44.154Z,39.8430
2023-04-17T05:19:46.409Z,39.8470
2023-04-17T05:20:48.668Z,39.8200
2023-04-17T05:21:50.920Z,39.8190
2023-04-17T05:22:53.173Z,39.8430
2023-04-17T05:23:55.396Z,39.8490
2023-04-17T05:24:57.638Z,39.7810
2023-04-17T05:25:59.871Z,39.8440
2023-04-17T05:27:02.237Z,39.8790
2023-04-17T05:28:04.394Z,39.8790
2023-04-17T05:29:04.486Z,39.8790
2023-04-17T05:30:06.741Z,39.8740
2023-04-17T05:31:09.100Z,39.6240
2023-04-17T05:32:11.329Z,39.4520
2023-04-17T05:33:13.521Z,39.2830
2023-04-17T05:34:15.679Z,39.2500
2023-04-17T05:35:17.928Z,39.2270
2023-04-17T05:36:20.215Z,39.1020
2023-04-17T05:37:22.485Z,39.1560
2023-04-17T05:38:24.794Z,39.1260
2023-04-17T05:39:27.003Z,39.1590
2023-04-17T05:40:29.326Z,39.1790
2023-04-17T05:41:29.409Z,39.1500
2023-04-17T05:42:31.701Z,39.1620
2023-04-17T05:43:34.044Z,39.1980
2023-04-17T05:44:36.334Z,39.1440
2023-04-17T05:45:38.715Z,39.1270
2023-04-17T05:46:41.005Z,39.1680
2023-04-17T05:47:43.348Z,39.2030
2023-04-17T05:48:45.670Z,39.2770
2023-04-17T05:49:47.923Z,39.2700
2023-04-17T05:50:50.222Z,39.3600
2023-04-17T05:51:52.553Z,39.3950
2023-04-17T05:52:54.849Z,39.3470
2023-04-17T05:53:57.137Z,39.2600
2023-04-17T05:54:57.226Z,39.3360
2023-04-17T05:55:59.456Z,39.6100
2023-04-17T05:58:23.069Z,39.5370
2023-04-17T05:59:10.885Z,39.4230
2023-04-17T06:00:12.861Z,39.3090
2023-04-17T06:01:15.149Z,39.1710
2023-04-17T06:02:17.529Z,39.0900
2023-04-17T06:03:18.498Z,39.0450
2023-04-17T06:04:20.243Z,39.0000
2023-04-17T06:05:22.138Z,38.9580
2023-04-17T06:06:24.026Z,38.9230
2023-04-17T06:07:26.231Z,38.9090
2023-04-17T06:08:28.474Z,38.8450
2023-04-17T06:09:30.818Z,38.8180
2023-04-17T06:10:33.026Z,38.7780
2023-04-17T06:11:35.303Z,38.7450
2023-04-17T06:12:37.626Z,38.7180
2023-04-17T06:13:37.769Z,38.7020
2023-04-17T06:14:40.104Z,38.6980
2023-04-17T06:15:42.385Z,38.6690
2023-04-17T06:16:44.695Z,38.6870
2023-04-17T06:17:47.004Z,38.6820
2023-04-17T06:18:49.248Z,38.6770
2023-04-17T06:19:51.564Z,38.6310
2023-04-17T06:20:51.656Z,38.6360
2023-04-17T06:21:53.941Z,38.6630
2023-04-17T06:22:56.261Z,38.6520
2023-04-17T06:23:58.552Z,38.6250
2023-04-17T06:25:00.783Z,38.6220
2023-04-17T06:26:03.038Z,38.6490
2023-04-17T06:27:05.303Z,38.7070
2023-04-17T06:28:07.581Z,38.7320
2023-04-17T06:29:07.685Z,38.7070
2023-04-17T06:30:10.009Z,38.7150
2023-04-17T06:31:12.458Z,38.7150
2023-04-17T06:32:14.594Z,38.7380
2023-04-17T06:33:16.918Z,38.7840
2023-04-17T06:34:19.214Z,38.8110
2023-04-17T06:35:19.374Z,38.8360
2023-04-17T06:36:21.652Z,38.8470
2023-04-17T06:37:23.935Z,38.8200
2023-04-17T06:38:26.270Z,38.8260
2023-04-17T06:39:28.547Z,38.8030
2023-04-17T06:40:30.871Z,38.8380
2023-04-17T06:41:31.046Z,38.8500
2023-04-17T06:42:33.285Z,38.8650
2023-04-17T06:43:35.561Z,38.8940
2023-04-17T06:44:37.863Z,38.9150
2023-04-17T06:45:40.211Z,38.9300
2023-04-17T06:46:42.529Z,38.9200
2023-04-17T06:47:44.857Z,38.9360
2023-04-17T06:48:44.980Z,38.9570
2023-04-17T06:49:47.301Z,38.9460
2023-04-17T06:50:49.674Z,38.9420
2023-04-17T06:51:51.892Z,38.9210
2023-04-17T06:52:54.213Z,38.9340
2023-04-17T06:53:56.577Z,38.9210
2023-04-17T06:54:56.685Z,38.9400
2023-04-17T06:55:59.033Z,38.9260
2023-04-17T06:57:01.301Z,38.9240
2023-04-17T06:58:03.582Z,38.9460
2023-04-17T06:59:05.851Z,38.9200
2023-04-17T07:00:08.114Z,38.9300
2023-04-17T07:01:10.536Z,38.9190
2023-04-17T07:02:12.663Z,38.9400
2023-04-17T07:03:12.752Z,38.9190
2023-04-17T07:04:15.077Z,38.9090
2023-04-17T07:05:17.250Z,38.9240
2023-04-17T07:06:19.550Z,38.8870
2023-04-17T07:07:21.808Z,38.9120
2023-04-17T07:08:24.041Z,38.8970
2023-04-17T07:09:26.317Z,38.8850
2023-04-17T07:10:26.508Z,38.8660
2023-04-17T07:11:28.683Z,38.8780
2023-04-17T07:12:30.905Z,38.8720
2023-04-17T07:13:33.270Z,38.8990
2023-04-17T07:14:35.416Z,38.9260
2023-04-17T07:15:37.683Z,38.9240
2023-04-17T07:16:39.952Z,38.9240
2023-04-17T07:17:42.204Z,38.9120
2023-04-17T07:18:44.395Z,38.9300
2023-04-17T07:19:46.621Z,38.9180
2023-04-17T07:20:46.753Z,38.9180
2023-04-17T07:21:49.061Z,38.9350
2023-04-17T07:22:51.218Z,38.9140
2023-04-17T07:23:53.474Z,38.8970
2023-04-17T07:24:55.819Z,38.8770
2023-04-17T07:25:58.037Z,38.8540
2023-04-17T07:27:00.373Z,38.8540
2023-04-17T07:28:04.395Z,38.8540
2023-04-17T07:29:04.787Z,38.8850
2023-04-17T07:30:04.905Z,38.8540
2023-04-17T07:31:07.200Z,38.8380
2023-04-17T07:32:09.450Z,38.8270
2023-04-17T07:33:11.706Z,38.8030
2023-04-17T07:34:13.938Z,38.8150
2023-04-17T07:35:16.223Z,38.8440
2023-04-17T07:36:18.423Z,38.8210
2023-04-17T07:37:20.669Z,38.8440
2023-04-17T07:38:22.935Z,38.8630
2023-04-17T07:39:23.038Z,38.8930
2023-04-17T07:41:51.408Z,39.1890
2023-04-17T07:42:53.705Z,39.6120
2023-04-17T07:43:58.446Z,40.5900
2023-04-17T07:44:58.054Z,40.7190
2023-04-17T07:46:00.289Z,41.2040
2023-04-17T07:47:02.554Z,41.6040
2023-04-17T07:48:04.950Z,41.4690
2023-04-17T07:49:07.070Z,41.2720
2023-04-17T07:50:07.165Z,41.2850
2023-04-17T07:51:09.420Z,41.3590
2023-04-17T07:52:11.671Z,41.6330
2023-04-17T07:53:14.045Z,41.7000
2023-04-17T07:54:16.283Z,41.6700
2023-04-17T07:55:18.596Z,41.7090
2023-04-17T07:56:20.841Z,41.7100
2023-04-17T07:57:21.039Z,41.7760
2023-04-17T07:58:23.244Z,41.9070
2023-04-17T07:59:25.522Z,41.7210
2023-04-17T08:00:27.810Z,41.3530
2023-04-17T08:01:30.114Z,41.7090
2023-04-17T08:02:32.464Z,41.6360
2023-04-17T08:03:35.049Z,41.7400
2023-04-17T08:04:34.934Z,41.4780
2023-04-17T08:05:37.082Z,41.7170
2023-04-17T08:06:39.361Z,41.8350
2023-04-17T08:07:41.659Z,41.8410
2023-04-17T08:08:43.970Z,41.8130
2023-04-17T08:09:46.230Z,42.1490
2023-04-17T08:10:48.517Z,41.9680
2023-04-17T08:11:57.473Z,42.2940
2023-04-17T08:12:50.987Z,42.0900
2023-04-17T08:13:53.409Z,41.9640
2023-04-17T08:14:55.576Z,42.3930
2023-04-17T08:15:57.846Z,42.1800
2023-04-17T08:17:00.218Z,41.9800
2023-04-17T08:18:02.422Z,42.3040
2023-04-17T08:19:04.642Z,42.2550
2023-04-17T08:20:06.869Z,42.2570
2023-04-17T08:21:09.132Z,42.5460
2023-04-17T08:22:11.371Z,42.4340
2023-04-17T08:23:13.597Z,42.4850
2023-04-17T08:24:18.681Z,42.5090
2023-04-17T08:25:18.104Z,42.6330
2023-04-17T08:26:20.340Z,42.4570
2023-04-17T08:27:20.417Z,42.4020
2023-04-17T08:28:22.730Z,42.4960
2023-04-17T08:29:24.969Z,42.5200
2023-04-17T08:30:27.227Z,42.5470
2023-04-17T08:31:29.537Z,42.6200
2023-04-17T08:32:31.792Z,42.4290
2023-04-17T08:33:33.994Z,42.6170
2023-04-17T08:34:36.287Z,42.7540
2023-04-17T08:35:38.454Z,42.8300
2023-04-17T08:36:40.617Z,42.8530
2023-04-17T08:37:42.783Z,42.7520
2023-04-17T08:38:42.875Z,42.7470
2023-04-17T08:39:45.142Z,42.8170
2023-04-17T08:40:47.299Z,42.8190
2023-04-17T08:41:49.528Z,43.0420
2023-04-17T08:42:51.802Z,43.0210
2023-04-17T08:43:54.134Z,43.0260
2023-04-17T08:44:56.449Z,42.7740
2023-04-17T08:45:58.733Z,43.0110
2023-04-17T08:46:58.842Z,42.9040
2023-04-17T08:48:01.151Z,42.9320
2023-04-17T08:49:03.461Z,42.8920
2023-04-17T08:50:05.890Z,42.7180
2023-04-17T08:51:08.071Z,42.6770
2023-04-17T08:52:10.370Z,42.4070
2023-04-17T08:53:10.534Z,42.5790
2023-04-17T08:54:12.839Z,42.7640
2023-04-17T08:55:15.157Z,42.7400
2023-04-17T08:56:17.387Z,42.6060
2023-04-17T08:57:19.659Z,42.4520
2023-04-17T08:58:21.870Z,42.6060
2023-04-17T08:59:24.150Z,42.7380
2023-04-17T09:00:26.330Z,42.7580
2023-04-17T09:01:28.563Z,42.4880
2023-04-17T09:02:30.829Z,42.5330
2023-04-17T09:03:33.142Z,42.4700
2023-04-17T09:04:33.200Z,42.6440
2023-04-17T09:05:35.293Z,42.5490
2023-04-17T09:06:37.479Z,42.4190
2023-04-17T09:07:39.713Z,42.3990
2023-04-17T09:08:41.933Z,42.3820
2023-04-17T09:09:44.156Z,42.4940
2023-04-17T09:10:46.478Z,42.3970
2023-04-17T09:11:48.530Z,42.1470
2023-04-17T09:12:50.686Z,42.3260
2023-04-17T09:13:52.893Z,42.4420
2023-04-17T09:14:55.207Z,42.5840
2023-04-17T09:15:57.405Z,42.1850
2023-04-17T09:16:59.520Z,41.8290
2023-04-17T09:18:01.845Z,41.3740
2023-04-17T09:19:04.010Z,41.1530
2023-04-17T09:20:06.304Z,42.0180
2023-04-17T09:21:08.612Z,41.9940
2023-04-17T09:22:10.903Z,42.1280
2023-04-17T09:23:13.193Z,42.0690
2023-04-17T09:24:15.517Z,42.0060
2023-04-17T09:25:15.683Z,41.8120
2023-04-17T09:26:18.011Z,41.7810
2023-04-17T09:27:20.307Z,41.8960
2023-04-17T09:28:22.568Z,41.7750
2023-04-17T09:29:24.882Z,41.7810
2023-04-17T09:30:27.237Z,41.7610
2023-04-17T09:31:29.559Z,41.8720
2023-04-17T09:32:29.685Z,41.7690
2023-04-17T09:33:31.875Z,41.6780
2023-04-17T09:34:34.162Z,41.7750
2023-04-17T09:35:39.634Z,41.7690
2023-04-17T09:36:38.663Z,41.6880
2023-04-17T09:37:40.862Z,41.8230
2023-04-17T09:38:43.037Z,41.7620
2023-04-17T09:39:45.234Z,41.6910
2023-04-17T09:40:47.471Z,41.7640
2023-04-17T09:41:49.724Z,41.6910
2023-04-17T09:42:51.944Z,41.9250
2023-04-17T09:43:52.016Z,41.9070
2023-04-17T09:44:54.257Z,41.6050
2023-04-17T09:45:56.527Z,41.7460
2023-04-17T09:46:58.963Z,41.7580
2023-04-17T09:48:00.994Z,41.7600
2023-04-17T09:49:03.132Z,41.7190
2023-04-17T09:50:05.391Z,41.6790
2023-04-17T09:51:07.604Z,41.7250
2023-04-17T09:52:09.894Z,41.7820
2023-04-17T09:53:09.993Z,41.7250
2023-04-17T09:54:10.346Z,41.5850
2023-04-17T09:55:12.412Z,41.6540
2023-04-17T09:56:14.662Z,41.5580
2023-04-17T09:57:16.960Z,41.4620
2023-04-17T09:58:19.217Z,41.4560
2023-04-17T09:59:21.481Z,41.5290
2023-04-17T10:00:23.803Z,41.4310
2023-04-17T10:01:24.130Z,41.4400
2023-04-17T10:02:26.401Z,41.3350
2023-04-17T10:03:28.635Z,41.2950
2023-04-17T10:04:30.819Z,41.2620
2023-04-17T10:05:33.166Z,41.3220
2023-04-17T10:06:35.271Z,41.3810
2023-04-17T10:07:37.567Z,41.2190
2023-04-17T10:08:39.806Z,41.2250
2023-04-17T10:09:39.922Z,41.1880
2023-04-17T10:10:42.254Z,41.1650
2023-04-17T10:11:44.513Z,41.0490
2023-04-17T10:12:46.848Z,41.0740
2023-04-17T10:13:49.074Z,41.2370
2023-04-17T10:14:51.316Z,41.0260
2023-04-17T10:15:53.592Z,40.9890
2023-04-17T10:16:53.911Z,41.0140
2023-04-17T10:17:56.053Z,41.0320
2023-04-17T10:18:58.283Z,40.9420
2023-04-17T10:20:00.572Z,40.9410
2023-04-17T10:21:03.400Z,40.9750
2023-04-17T10:22:05.117Z,40.8870
2023-04-17T10:23:07.450Z,40.7930
2023-04-17T10:24:07.583Z,40.7990
2023-04-17T10:25:09.920Z,40.8300
2023-04-17T10:26:12.200Z,40.7990
2023-04-17T10:27:14.521Z,40.7580
2023-04-17T10:28:16.848Z,40.6480
2023-04-17T10:29:19.062Z,40.5980
2023-04-17T10:31:21.487Z,40.5830
2023-04-17T10:32:23.896Z,40.5980
2023-04-17T10:33:26.047Z,40.5400
2023-04-17T10:34:28.156Z,40.4700
2023-04-17T10:35:30.406Z,40.4470
2023-04-17T10:36:32.684Z,40.2460
2023-04-17T10:37:34.947Z,40.1490
2023-04-17T10:38:37.253Z,40.0960
2023-04-17T10:39:39.453Z,40.1800
2023-04-17T10:40:39.580Z,40.2030
2023-04-17T10:41:41.869Z,40.2640
2023-04-17T10:42:44.176Z,40.2270
2023-04-17T10:43:46.456Z,40.2050
2023-04-17T10:44:48.717Z,39.9210
2023-04-17T10:45:51.003Z,39.9420
2023-04-17T10:46:53.274Z,39.6280
2023-04-17T10:47:55.642Z,39.1660
2023-04-17T10:48:55.916Z,38.9470
2023-04-17T10:49:58.041Z,38.8470
2023-04-17T10:51:00.302Z,38.7640
2023-04-17T10:52:02.562Z,38.6870
2023-04-17T10:53:04.765Z,38.7700
2023-04-17T10:54:07.070Z,38.7880
2023-04-17T10:55:09.282Z,39.0010
2023-04-17T10:56:11.531Z,39.0100
2023-04-17T10:57:11.638Z,38.9790
2023-04-17T10:58:13.914Z,38.7560
2023-04-17T10:59:16.487Z,38.7880
2023-04-17T11:01:48.649Z,38.6400
2023-04-17T11:02:50.834Z,38.8090
2023-04-17T11:03:52.895Z,38.6550
2023-04-17T11:04:55.105Z,38.8180
2023-04-17T11:05:57.198Z,38.8280
2023-04-17T11:06:59.411Z,38.7060
2023-04-17T11:08:01.634Z,38.7880
2023-04-17T11:09:03.825Z,38.5840
2023-04-17T11:10:06.180Z,38.6650
2023-04-17T11:11:06.778Z,38.5830
2023-04-17T11:12:08.330Z,38.6190
2023-04-17T11:13:10.568Z,38.6140
2023-04-17T11:14:14.433Z,38.5760
2023-04-17T11:15:14.936Z,38.6390
2023-04-17T11:16:17.151Z,38.7060
2023-04-17T11:17:19.332Z,39.2990
2023-04-17T11:18:21.518Z,39.1310
2023-04-17T11:19:23.766Z,39.0460
2023-04-17T11:20:26.051Z,39.1980
2023-04-17T11:21:28.148Z,39.1560
2023-04-17T11:22:30.309Z,39.1220
2023-04-17T11:23:32.552Z,39.2050
2023-04-17T11:24:34.731Z,39.1160
2023-04-17T11:25:36.918Z,39.0740
2023-04-17T11:26:39.096Z,38.9940
2023-04-17T11:27:41.305Z,38.9690
2023-04-17T11:28:43.519Z,38.8820
2023-04-17T11:29:43.627Z,38.8820
2023-04-17T11:30:46.010Z,38.8520
2023-04-17T11:31:48.163Z,38.7960
2023-04-17T11:32:50.393Z,38.8050
2023-04-17T11:33:50.519Z,38.7800
2023-04-17T11:34:53.159Z,38.8030
2023-04-17T11:35:55.094Z,38.8240
2023-04-17T11:36:55.146Z,38.8070
2023-04-17T11:37:57.424Z,38.7350
2023-04-17T11:38:59.735Z,38.7640
2023-04-17T11:40:01.983Z,38.7620
2023-04-17T11:41:04.216Z,38.7570
2023-04-17T11:42:06.478Z,38.7380
2023-04-17T11:43:08.815Z,38.7150
2023-04-17T11:44:11.047Z,38.7150
2023-04-17T11:45:13.302Z,38.7320
2023-04-17T11:46:15.605Z,38.7200
2023-04-17T11:46:58.501Z,38.7240
2023-04-17T11:48:00.775Z,38.7200
2023-04-17T11:49:02.985Z,38.6810
2023-04-17T11:50:05.276Z,38.6580
2023-04-17T11:51:07.512Z,38.6040
2023-04-17T11:52:09.826Z,38.5000
2023-04-17T11:53:12.017Z,38.4460
2023-04-17T11:54:12.322Z,38.3660
2023-04-17T11:55:14.390Z,38.3840
2023-04-17T11:56:16.592Z,38.3840
2023-04-17T11:57:18.832Z,38.3720
2023-04-17T11:58:21.028Z,38.3410
2023-04-17T11:59:23.200Z,38.2950
2023-04-17T12:00:25.425Z,38.2530
2023-04-17T12:01:27.612Z,38.2490
2023-04-17T12:02:30.013Z,38.2200
2023-04-17T12:03:32.181Z,38.1890
2023-04-17T12:04:34.748Z,38.1130
2023-04-17T12:05:36.611Z,38.1180
2023-04-17T12:06:38.829Z,38.0990
2023-04-17T12:07:38.914Z,38.1450
2023-04-17T12:08:41.157Z,38.1400
2023-04-17T12:09:43.393Z,38.1150
2023-04-17T12:10:45.666Z,38.1330
2023-04-17T12:11:47.942Z,38.1560
2023-04-17T12:12:50.297Z,38.1670
2023-04-17T12:13:52.382Z,38.1140
2023-04-17T12:14:54.639Z,38.1790
2023-04-17T12:15:56.944Z,38.1770
2023-04-17T12:16:56.959Z,38.1770
2023-04-17T12:17:59.280Z,38.1990
2023-04-17T12:19:01.426Z,38.2140
2023-04-17T12:20:03.657Z,38.2050
2023-04-17T12:21:05.852Z,38.2010
2023-04-17T12:22:08.058Z,38.2430
2023-04-17T12:23:10.413Z,38.2490
2023-04-17T12:24:12.707Z,38.2010
2023-04-17T12:25:14.730Z,38.1830
2023-04-17T12:26:16.968Z,38.1470
2023-04-17T12:27:19.245Z,38.1330
2023-04-17T12:28:21.516Z,38.0750
2023-04-17T12:29:29.598Z,38.0300
2023-04-17T12:30:23.760Z,37.9970
2023-04-17T12:31:26.064Z,37.9150
2023-04-17T12:32:28.303Z,37.8430
2023-04-17T12:33:30.543Z,37.8150
2023-04-17T12:34:32.766Z,37.7720
2023-04-17T12:35:35.034Z,37.7660